sensor_id;sensor_type;location;lat;lon;timestamp;temperature;humidity
57664;DHT22;43493;53.098;6.064;2022-08-18T00:02:14;18.80;99.90
57664;DHT22;43493;53.098;6.064;2022-08-18T00:04:41;18.80;99.90
57664;DHT22;43493;53.098;6.064;2022-08-18T00:07:13;18.80;99.90
57664;DHT22;43493;53.098;6.064;2022-08-18T00:09:40;18.80;99.90
57664;DHT22;43493;53.098;6.064;2022-08-18T00:12:15;18.80;99.90
57664;DHT22;43493;53.098;6.064;2022-08-18T00:14:42;18.80;99.90
57664;DHT22;43493;53.098;6.064;2022-08-18T00:17:08;18.80;99.90
57664;DHT22;43493;53.098;6.064;2022-08-18T00:19:34;18.80;99.90
57664;DHT22;43493;53.098;6.064;2022-08-18T00:22:00;18.80;99.90
57664;DHT22;43493;53.098;6.064;2022-08-18T00:24:25;18.80;99.90
57664;DHT22;43493;53.098;6.064;2022-08-18T00:26:51;18.90;99.90
57664;DHT22;43493;53.098;6.064;2022-08-18T00:29:17;18.90;99.90
57664;DHT22;43493;53.098;6.064;2022-08-18T00:31:43;18.90;99.90
57664;DHT22;43493;53.098;6.064;2022-08-18T00:34:08;18.90;99.90
57664;DHT22;43493;53.098;6.064;2022-08-18T00:36:34;18.90;99.90
57664;DHT22;43493;53.098;6.064;2022-08-18T00:39:00;18.90;99.90
57664;DHT22;43493;53.098;6.064;2022-08-18T00:41:26;18.80;99.90
57664;DHT22;43493;53.098;6.064;2022-08-18T00:43:53;18.80;99.90
57664;DHT22;43493;53.098;6.064;2022-08-18T00:46:21;18.90;99.90
57664;DHT22;43493;53.098;6.064;2022-08-18T00:48:47;18.80;99.90
57664;DHT22;43493;53.098;6.064;2022-08-18T00:56:54;18.90;99.90
57664;DHT22;43493;53.098;6.064;2022-08-18T00:59:38;18.90;99.90
57664;DHT22;43493;53.098;6.064;2022-08-18T01:02:22;18.90;99.90
57664;DHT22;43493;53.098;6.064;2022-08-18T01:05:03;18.90;99.90
57664;DHT22;43493;53.098;6.064;2022-08-18T01:07:39;18.90;99.90
57664;DHT22;43493;53.098;6.064;2022-08-18T01:10:12;19.00;99.90
57664;DHT22;43493;53.098;6.064;2022-08-18T01:12:44;18.90;99.90
57664;DHT22;43493;53.098;6.064;2022-08-18T01:15:10;19.00;99.90
57664;DHT22;43493;53.098;6.064;2022-08-18T01:17:39;19.00;99.90
57664;DHT22;43493;53.098;6.064;2022-08-18T01:20:28;19.00;99.90
57664;DHT22;43493;53.098;6.064;2022-08-18T01:23:16;19.00;99.90
57664;DHT22;43493;53.098;6.064;2022-08-18T01:25:43;19.00;99.90
57664;DHT22;43493;53.098;6.064;2022-08-18T01:28:31;19.00;99.90
57664;DHT22;43493;53.098;6.064;2022-08-18T01:30:58;19.00;99.90
57664;DHT22;43493;53.098;6.064;2022-08-18T01:33:35;19.00;99.90
57664;DHT22;43493;53.098;6.064;2022-08-18T01:36:16;19.00;99.90
57664;DHT22;43493;53.098;6.064;2022-08-18T01:38:47;19.00;99.90
57664;DHT22;43493;53.098;6.064;2022-08-18T01:41:15;19.00;99.90
57664;DHT22;43493;53.098;6.064;2022-08-18T01:43:41;19.00;99.90
57664;DHT22;43493;53.098;6.064;2022-08-18T01:46:07;19.00;99.90
57664;DHT22;43493;53.098;6.064;2022-08-18T01:48:34;19.00;99.90
57664;DHT22;43493;53.098;6.064;2022-08-18T01:51:03;19.00;99.90
57664;DHT22;43493;53.098;6.064;2022-08-18T01:53:30;19.00;99.90
57664;DHT22;43493;53.098;6.064;2022-08-18T01:55:56;19.00;99.90
57664;DHT22;43493;53.098;6.064;2022-08-18T01:58:23;19.00;99.90
57664;DHT22;43493;53.098;6.064;2022-08-18T02:00:57;19.00;99.90
57664;DHT22;43493;53.098;6.064;2022-08-18T02:03:25;19.00;99.90
57664;DHT22;43493;53.098;6.064;2022-08-18T02:05:56;19.00;99.90
57664;DHT22;43493;53.098;6.064;2022-08-18T02:08:24;19.00;99.90
57664;DHT22;43493;53.098;6.064;2022-08-18T02:10:50;19.00;99.90
57664;DHT22;43493;53.098;6.064;2022-08-18T02:13:15;19.00;99.90
57664;DHT22;43493;53.098;6.064;2022-08-18T02:15:41;19.00;99.90
57664;DHT22;43493;53.098;6.064;2022-08-18T02:18:16;19.00;99.90
57664;DHT22;43493;53.098;6.064;2022-08-18T02:20:42;19.10;99.90
57664;DHT22;43493;53.098;6.064;2022-08-18T02:23:09;19.00;99.90
57664;DHT22;43493;53.098;6.064;2022-08-18T02:25:35;19.00;99.90
57664;DHT22;43493;53.098;6.064;2022-08-18T02:28:01;19.00;99.90
57664;DHT22;43493;53.098;6.064;2022-08-18T02:30:28;19.00;99.90
57664;DHT22;43493;53.098;6.064;2022-08-18T02:32:56;19.00;99.90
57664;DHT22;43493;53.098;6.064;2022-08-18T02:35:23;19.00;99.90
57664;DHT22;43493;53.098;6.064;2022-08-18T02:37:49;19.00;99.90
57664;DHT22;43493;53.098;6.064;2022-08-18T02:40:15;19.10;99.90
57664;DHT22;43493;53.098;6.064;2022-08-18T02:42:42;19.10;99.90
57664;DHT22;43493;53.098;6.064;2022-08-18T02:45:09;19.10;99.90
57664;DHT22;43493;53.098;6.064;2022-08-18T02:47:35;19.00;99.90
57664;DHT22;43493;53.098;6.064;2022-08-18T02:50:00;19.10;99.90
57664;DHT22;43493;53.098;6.064;2022-08-18T02:52:26;19.00;99.90
57664;DHT22;43493;53.098;6.064;2022-08-18T02:54:59;19.10;99.90
57664;DHT22;43493;53.098;6.064;2022-08-18T02:57:28;19.10;99.90
57664;DHT22;43493;53.098;6.064;2022-08-18T02:59:54;19.00;99.90
57664;DHT22;43493;53.098;6.064;2022-08-18T03:02:20;19.10;99.90
57664;DHT22;43493;53.098;6.064;2022-08-18T03:04:47;19.10;99.90
57664;DHT22;43493;53.098;6.064;2022-08-18T03:07:14;19.00;99.90
57664;DHT22;43493;53.098;6.064;2022-08-18T03:09:40;19.10;99.90
57664;DHT22;43493;53.098;6.064;2022-08-18T03:12:07;19.10;99.90
57664;DHT22;43493;53.098;6.064;2022-08-18T03:14:34;19.00;99.90
57664;DHT22;43493;53.098;6.064;2022-08-18T03:17:04;19.00;99.90
57664;DHT22;43493;53.098;6.064;2022-08-18T03:19:30;19.00;99.90
57664;DHT22;43493;53.098;6.064;2022-08-18T03:21:57;19.00;99.90
57664;DHT22;43493;53.098;6.064;2022-08-18T03:24:25;19.00;99.90
57664;DHT22;43493;53.098;6.064;2022-08-18T03:26:52;18.90;99.90
57664;DHT22;43493;53.098;6.064;2022-08-18T03:29:19;19.00;99.90
57664;DHT22;43493;53.098;6.064;2022-08-18T03:31:46;19.00;99.90
57664;DHT22;43493;53.098;6.064;2022-08-18T03:34:13;19.00;99.90
57664;DHT22;43493;53.098;6.064;2022-08-18T03:36:40;19.00;99.90
57664;DHT22;43493;53.098;6.064;2022-08-18T03:39:11;19.00;99.90
57664;DHT22;43493;53.098;6.064;2022-08-18T03:41:41;19.00;99.90
57664;DHT22;43493;53.098;6.064;2022-08-18T03:44:09;19.00;99.90
57664;DHT22;43493;53.098;6.064;2022-08-18T03:46:34;19.00;99.90
57664;DHT22;43493;53.098;6.064;2022-08-18T03:49:00;19.00;99.90
57664;DHT22;43493;53.098;6.064;2022-08-18T03:51:29;19.00;99.90
57664;DHT22;43493;53.098;6.064;2022-08-18T03:53:58;19.00;99.90
57664;DHT22;43493;53.098;6.064;2022-08-18T03:56:31;19.00;99.90
57664;DHT22;43493;53.098;6.064;2022-08-18T03:59:03;19.00;99.90
57664;DHT22;43493;53.098;6.064;2022-08-18T04:01:32;19.00;99.90
57664;DHT22;43493;53.098;6.064;2022-08-18T04:04:01;19.00;99.90
57664;DHT22;43493;53.098;6.064;2022-08-18T04:06:33;18.90;99.90
57664;DHT22;43493;53.098;6.064;2022-08-18T04:09:02;18.90;99.90
57664;DHT22;43493;53.098;6.064;2022-08-18T04:11:31;19.00;99.90
57664;DHT22;43493;53.098;6.064;2022-08-18T04:13:57;19.00;99.90
57664;DHT22;43493;53.098;6.064;2022-08-18T04:16:28;19.00;99.90
57664;DHT22;43493;53.098;6.064;2022-08-18T04:18:57;19.00;99.90
57664;DHT22;43493;53.098;6.064;2022-08-18T04:21:30;19.00;99.90
57664;DHT22;43493;53.098;6.064;2022-08-18T04:23:57;19.00;99.90
57664;DHT22;43493;53.098;6.064;2022-08-18T04:26:27;19.00;99.90
57664;DHT22;43493;53.098;6.064;2022-08-18T04:28:53;19.00;99.90
57664;DHT22;43493;53.098;6.064;2022-08-18T04:31:18;19.00;99.90
57664;DHT22;43493;53.098;6.064;2022-08-18T04:33:49;19.00;99.90
57664;DHT22;43493;53.098;6.064;2022-08-18T04:36:15;19.00;99.90
57664;DHT22;43493;53.098;6.064;2022-08-18T04:38:42;19.00;99.90
57664;DHT22;43493;53.098;6.064;2022-08-18T04:41:09;19.00;99.90
57664;DHT22;43493;53.098;6.064;2022-08-18T04:43:35;19.00;99.90
57664;DHT22;43493;53.098;6.064;2022-08-18T04:46:01;19.00;99.90
57664;DHT22;43493;53.098;6.064;2022-08-18T04:48:31;19.00;99.90
57664;DHT22;43493;53.098;6.064;2022-08-18T04:51:10;19.00;99.90
57664;DHT22;43493;53.098;6.064;2022-08-18T04:53:37;19.00;99.90
57664;DHT22;43493;53.098;6.064;2022-08-18T04:56:34;19.00;99.90
57664;DHT22;43493;53.098;6.064;2022-08-18T04:59:09;19.00;99.90
57664;DHT22;43493;53.098;6.064;2022-08-18T05:01:41;19.00;99.90
57664;DHT22;43493;53.098;6.064;2022-08-18T05:04:07;19.00;99.90
57664;DHT22;43493;53.098;6.064;2022-08-18T05:06:34;19.00;99.90
57664;DHT22;43493;53.098;6.064;2022-08-18T05:09:03;19.00;99.90
57664;DHT22;43493;53.098;6.064;2022-08-18T05:11:30;19.00;99.90
57664;DHT22;43493;53.098;6.064;2022-08-18T05:14:04;19.00;99.90
57664;DHT22;43493;53.098;6.064;2022-08-18T05:16:30;19.00;99.90
57664;DHT22;43493;53.098;6.064;2022-08-18T05:19:06;19.10;99.90
57664;DHT22;43493;53.098;6.064;2022-08-18T05:21:33;19.10;99.90
57664;DHT22;43493;53.098;6.064;2022-08-18T05:24:02;19.10;99.90
57664;DHT22;43493;53.098;6.064;2022-08-18T05:26:28;19.10;99.90
57664;DHT22;43493;53.098;6.064;2022-08-18T05:28:54;19.10;99.90
57664;DHT22;43493;53.098;6.064;2022-08-18T05:31:22;19.20;99.90
57664;DHT22;43493;53.098;6.064;2022-08-18T05:33:48;19.20;99.90
57664;DHT22;43493;53.098;6.064;2022-08-18T05:38:58;19.20;99.90
57664;DHT22;43493;53.098;6.064;2022-08-18T05:41:33;19.30;99.90
57664;DHT22;43493;53.098;6.064;2022-08-18T05:44:00;19.30;99.90
57664;DHT22;43493;53.098;6.064;2022-08-18T05:49:12;19.30;99.90
57664;DHT22;43493;53.098;6.064;2022-08-18T05:51:46;19.30;99.90
57664;DHT22;43493;53.098;6.064;2022-08-18T05:54:14;19.30;99.90
57664;DHT22;43493;53.098;6.064;2022-08-18T05:57:07;19.30;99.90
57664;DHT22;43493;53.098;6.064;2022-08-18T05:59:36;19.30;99.90
57664;DHT22;43493;53.098;6.064;2022-08-18T06:02:09;19.40;99.90
57664;DHT22;43493;53.098;6.064;2022-08-18T06:04:52;19.40;99.90
57664;DHT22;43493;53.098;6.064;2022-08-18T06:07:43;19.50;99.90
57664;DHT22;43493;53.098;6.064;2022-08-18T06:10:12;19.50;99.90
57664;DHT22;43493;53.098;6.064;2022-08-18T06:12:59;19.60;99.90
57664;DHT22;43493;53.098;6.064;2022-08-18T06:15:37;19.70;99.90
57664;DHT22;43493;53.098;6.064;2022-08-18T06:36:53;19.80;99.90
57664;DHT22;43493;53.098;6.064;2022-08-18T06:39:35;19.90;99.90
57664;DHT22;43493;53.098;6.064;2022-08-18T06:42:04;20.00;99.90
57664;DHT22;43493;53.098;6.064;2022-08-18T06:44:36;20.10;99.90
57664;DHT22;43493;53.098;6.064;2022-08-18T06:49:56;20.20;99.90
57664;DHT22;43493;53.098;6.064;2022-08-18T06:52:31;20.20;99.90
57664;DHT22;43493;53.098;6.064;2022-08-18T06:55:04;20.20;99.90
57664;DHT22;43493;53.098;6.064;2022-08-18T06:57:34;20.10;99.90
57664;DHT22;43493;53.098;6.064;2022-08-18T07:02:42;19.90;99.90
57664;DHT22;43493;53.098;6.064;2022-08-18T07:05:25;19.80;99.90
57664;DHT22;43493;53.098;6.064;2022-08-18T07:08:22;19.80;99.90
57664;DHT22;43493;53.098;6.064;2022-08-18T07:10:55;19.70;99.90
57664;DHT22;43493;53.098;6.064;2022-08-18T07:13:37;19.70;99.90
57664;DHT22;43493;53.098;6.064;2022-08-18T07:16:23;19.70;99.90
57664;DHT22;43493;53.098;6.064;2022-08-18T07:18:50;20.00;99.90
57664;DHT22;43493;53.098;6.064;2022-08-18T07:21:32;21.00;99.90
57664;DHT22;43493;53.098;6.064;2022-08-18T07:29:35;20.90;99.90
57664;DHT22;43493;53.098;6.064;2022-08-18T07:32:21;20.70;99.90
57664;DHT22;43493;53.098;6.064;2022-08-18T07:34:47;20.60;99.90
57664;DHT22;43493;53.098;6.064;2022-08-18T07:39:54;20.30;99.90
57664;DHT22;43493;53.098;6.064;2022-08-18T07:50:36;20.60;99.90
57664;DHT22;43493;53.098;6.064;2022-08-18T07:55:49;20.50;99.90
57664;DHT22;43493;53.098;6.064;2022-08-18T07:58:29;20.50;99.90
57664;DHT22;43493;53.098;6.064;2022-08-18T08:01:08;20.50;99.90
57664;DHT22;43493;53.098;6.064;2022-08-18T08:04:09;20.60;99.90
57664;DHT22;43493;53.098;6.064;2022-08-18T08:06:41;20.90;99.90
57664;DHT22;43493;53.098;6.064;2022-08-18T08:22:50;20.70;99.90
57664;DHT22;43493;53.098;6.064;2022-08-18T08:25:25;20.70;99.90
57664;DHT22;43493;53.098;6.064;2022-08-18T08:28:13;20.70;99.90
57664;DHT22;43493;53.098;6.064;2022-08-18T08:31:11;20.70;99.90
57664;DHT22;43493;53.098;6.064;2022-08-18T08:33:50;20.80;99.90
57664;DHT22;43493;53.098;6.064;2022-08-18T08:36:30;20.70;99.90
57664;DHT22;43493;53.098;6.064;2022-08-18T08:39:03;20.80;99.90
57664;DHT22;43493;53.098;6.064;2022-08-18T08:41:39;20.80;99.90
57664;DHT22;43493;53.098;6.064;2022-08-18T08:44:14;20.70;99.90
57664;DHT22;43493;53.098;6.064;2022-08-18T08:46:46;20.70;99.90
57664;DHT22;43493;53.098;6.064;2022-08-18T08:51:59;20.60;99.90
57664;DHT22;43493;53.098;6.064;2022-08-18T08:54:35;20.70;99.90
57664;DHT22;43493;53.098;6.064;2022-08-18T08:59:29;21.10;99.90
57664;DHT22;43493;53.098;6.064;2022-08-18T09:05:14;21.60;99.90
57664;DHT22;43493;53.098;6.064;2022-08-18T09:21:43;21.40;99.90
57664;DHT22;43493;53.098;6.064;2022-08-18T09:24:25;21.30;99.90
57664;DHT22;43493;53.098;6.064;2022-08-18T09:35:17;21.40;99.90
57664;DHT22;43493;53.098;6.064;2022-08-18T09:38:16;21.60;99.90
57664;DHT22;43493;53.098;6.064;2022-08-18T09:41:19;21.70;99.90
57664;DHT22;43493;53.098;6.064;2022-08-18T09:44:04;21.80;99.90
57664;DHT22;43493;53.098;6.064;2022-08-18T09:46:49;21.80;99.90
57664;DHT22;43493;53.098;6.064;2022-08-18T09:51:48;21.70;99.90
57664;DHT22;43493;53.098;6.064;2022-08-18T09:54:17;21.70;99.90
57664;DHT22;43493;53.098;6.064;2022-08-18T10:02:00;21.60;99.90
57664;DHT22;43493;53.098;6.064;2022-08-18T10:04:31;21.70;99.90
57664;DHT22;43493;53.098;6.064;2022-08-18T10:07:33;21.90;99.90
57664;DHT22;43493;53.098;6.064;2022-08-18T10:18:28;22.10;99.90
57664;DHT22;43493;53.098;6.064;2022-08-18T10:21:13;22.20;99.90
57664;DHT22;43493;53.098;6.064;2022-08-18T10:29:05;22.20;99.90
57664;DHT22;43493;53.098;6.064;2022-08-18T10:34:43;22.30;99.90
57664;DHT22;43493;53.098;6.064;2022-08-18T10:37:58;22.40;99.90
57664;DHT22;43493;53.098;6.064;2022-08-18T10:40:19;22.30;99.90
57664;DHT22;43493;53.098;6.064;2022-08-18T10:42:57;22.40;99.90
57664;DHT22;43493;53.098;6.064;2022-08-18T10:48:09;22.40;99.90
57664;DHT22;43493;53.098;6.064;2022-08-18T10:53:52;22.20;99.90
57664;DHT22;43493;53.098;6.064;2022-08-18T11:04:36;22.10;99.90
57664;DHT22;43493;53.098;6.064;2022-08-18T11:09:41;22.40;99.90
57664;DHT22;43493;53.098;6.064;2022-08-18T11:12:10;22.60;99.90
57664;DHT22;43493;53.098;6.064;2022-08-18T11:15:14;22.60;99.90
57664;DHT22;43493;53.098;6.064;2022-08-18T11:17:48;22.70;99.90
57664;DHT22;43493;53.098;6.064;2022-08-18T11:20:19;22.70;99.90
57664;DHT22;43493;53.098;6.064;2022-08-18T11:22:55;22.70;99.90
57664;DHT22;43493;53.098;6.064;2022-08-18T11:25:33;22.70;99.90
57664;DHT22;43493;53.098;6.064;2022-08-18T11:28:00;22.70;99.90
57664;DHT22;43493;53.098;6.064;2022-08-18T11:30:33;22.70;99.90
57664;DHT22;43493;53.098;6.064;2022-08-18T11:33:02;22.70;99.90
57664;DHT22;43493;53.098;6.064;2022-08-18T11:35:33;22.70;99.90
57664;DHT22;43493;53.098;6.064;2022-08-18T11:38:11;22.80;99.90
57664;DHT22;43493;53.098;6.064;2022-08-18T11:40:43;22.70;99.90
57664;DHT22;43493;53.098;6.064;2022-08-18T11:43:33;22.70;99.90
57664;DHT22;43493;53.098;6.064;2022-08-18T11:46:51;22.70;99.90
57664;DHT22;43493;53.098;6.064;2022-08-18T11:49:15;22.70;99.90
57664;DHT22;43493;53.098;6.064;2022-08-18T11:52:00;22.70;99.90
57664;DHT22;43493;53.098;6.064;2022-08-18T11:54:39;22.70;99.90
57664;DHT22;43493;53.098;6.064;2022-08-18T11:57:29;22.70;99.90
57664;DHT22;43493;53.098;6.064;2022-08-18T11:59:55;22.70;99.90
57664;DHT22;43493;53.098;6.064;2022-08-18T12:02:23;22.70;99.90
57664;DHT22;43493;53.098;6.064;2022-08-18T12:04:55;22.80;99.90
57664;DHT22;43493;53.098;6.064;2022-08-18T12:07:32;22.80;99.90
57664;DHT22;43493;53.098;6.064;2022-08-18T12:10:22;22.80;99.90
57664;DHT22;43493;53.098;6.064;2022-08-18T12:12:50;22.90;99.90
57664;DHT22;43493;53.098;6.064;2022-08-18T12:17:44;23.00;99.90
57664;DHT22;43493;53.098;6.064;2022-08-18T12:20:11;23.10;99.90
57664;DHT22;43493;53.098;6.064;2022-08-18T12:22:40;23.20;99.90
57664;DHT22;43493;53.098;6.064;2022-08-18T12:25:10;23.30;99.90
57664;DHT22;43493;53.098;6.064;2022-08-18T12:27:36;23.30;99.90
57664;DHT22;43493;53.098;6.064;2022-08-18T12:30:04;23.40;99.90
57664;DHT22;43493;53.098;6.064;2022-08-18T12:32:32;23.40;99.90
57664;DHT22;43493;53.098;6.064;2022-08-18T12:34:58;23.40;99.90
57664;DHT22;43493;53.098;6.064;2022-08-18T12:37:26;23.30;99.90
57664;DHT22;43493;53.098;6.064;2022-08-18T12:39:54;23.30;99.90
57664;DHT22;43493;53.098;6.064;2022-08-18T12:42:20;23.30;99.90
57664;DHT22;43493;53.098;6.064;2022-08-18T12:44:46;23.20;99.90
57664;DHT22;43493;53.098;6.064;2022-08-18T12:47:15;23.20;99.90
57664;DHT22;43493;53.098;6.064;2022-08-18T12:49:42;23.20;99.90
57664;DHT22;43493;53.098;6.064;2022-08-18T12:52:08;23.10;99.90
57664;DHT22;43493;53.098;6.064;2022-08-18T12:54:34;23.00;99.90
57664;DHT22;43493;53.098;6.064;2022-08-18T12:57:02;23.00;99.90
57664;DHT22;43493;53.098;6.064;2022-08-18T12:59:30;23.10;99.90
57664;DHT22;43493;53.098;6.064;2022-08-18T13:01:55;23.00;99.90
57664;DHT22;43493;53.098;6.064;2022-08-18T13:09:19;23.00;99.90
57664;DHT22;43493;53.098;6.064;2022-08-18T13:11:45;23.00;99.90
57664;DHT22;43493;53.098;6.064;2022-08-18T13:14:11;23.00;99.90
57664;DHT22;43493;53.098;6.064;2022-08-18T13:16:39;23.10;99.90
57664;DHT22;43493;53.098;6.064;2022-08-18T13:19:06;23.20;99.90
57664;DHT22;43493;53.098;6.064;2022-08-18T13:21:32;23.30;99.90
57664;DHT22;43493;53.098;6.064;2022-08-18T13:23:58;23.40;99.90
57664;DHT22;43493;53.098;6.064;2022-08-18T13:26:32;23.40;99.90
57664;DHT22;43493;53.098;6.064;2022-08-18T13:28:58;23.40;99.90
57664;DHT22;43493;53.098;6.064;2022-08-18T13:31:25;23.30;99.90
57664;DHT22;43493;53.098;6.064;2022-08-18T13:43:39;23.10;99.90
57664;DHT22;43493;53.098;6.064;2022-08-18T13:46:09;23.10;99.90
57664;DHT22;43493;53.098;6.064;2022-08-18T13:48:36;23.10;99.90
57664;DHT22;43493;53.098;6.064;2022-08-18T13:51:03;23.10;99.90
57664;DHT22;43493;53.098;6.064;2022-08-18T13:53:29;23.10;99.90
57664;DHT22;43493;53.098;6.064;2022-08-18T13:55:56;23.10;99.90
57664;DHT22;43493;53.098;6.064;2022-08-18T13:58:23;23.10;99.90
57664;DHT22;43493;53.098;6.064;2022-08-18T14:00:56;23.00;99.90
57664;DHT22;43493;53.098;6.064;2022-08-18T14:10:48;22.90;99.90
57664;DHT22;43493;53.098;6.064;2022-08-18T14:13:16;22.90;99.90
57664;DHT22;43493;53.098;6.064;2022-08-18T14:15:44;22.90;99.90
57664;DHT22;43493;53.098;6.064;2022-08-18T14:18:10;23.00;99.90
57664;DHT22;43493;53.098;6.064;2022-08-18T14:20:36;23.00;99.90
57664;DHT22;43493;53.098;6.064;2022-08-18T14:23:21;22.90;99.90
57664;DHT22;43493;53.098;6.064;2022-08-18T14:26:05;22.90;99.90
57664;DHT22;43493;53.098;6.064;2022-08-18T14:28:50;22.90;99.90
57664;DHT22;43493;53.098;6.064;2022-08-18T14:31:16;22.90;99.90
57664;DHT22;43493;53.098;6.064;2022-08-18T14:33:44;22.90;99.90
57664;DHT22;43493;53.098;6.064;2022-08-18T14:36:10;22.90;99.90
57664;DHT22;43493;53.098;6.064;2022-08-18T14:38:36;22.90;99.90
57664;DHT22;43493;53.098;6.064;2022-08-18T14:41:09;22.90;99.90
57664;DHT22;43493;53.098;6.064;2022-08-18T14:46:03;22.90;99.90
57664;DHT22;43493;53.098;6.064;2022-08-18T14:48:29;22.90;99.90
57664;DHT22;43493;53.098;6.064;2022-08-18T14:50:55;22.80;99.90
57664;DHT22;43493;53.098;6.064;2022-08-18T14:53:26;22.90;99.90
57664;DHT22;43493;53.098;6.064;2022-08-18T14:55:53;22.90;99.90
57664;DHT22;43493;53.098;6.064;2022-08-18T14:58:24;23.00;99.90
57664;DHT22;43493;53.098;6.064;2022-08-18T15:00:56;23.00;99.90
57664;DHT22;43493;53.098;6.064;2022-08-18T15:03:26;22.90;99.90
57664;DHT22;43493;53.098;6.064;2022-08-18T15:05:52;22.90;99.90
57664;DHT22;43493;53.098;6.064;2022-08-18T15:08:19;23.00;99.90
57664;DHT22;43493;53.098;6.064;2022-08-18T15:10:45;22.90;99.90
57664;DHT22;43493;53.098;6.064;2022-08-18T15:13:11;22.90;99.90
57664;DHT22;43493;53.098;6.064;2022-08-18T15:15:37;22.90;99.90
57664;DHT22;43493;53.098;6.064;2022-08-18T15:18:03;22.90;99.90
57664;DHT22;43493;53.098;6.064;2022-08-18T15:20:29;22.90;99.90
57664;DHT22;43493;53.098;6.064;2022-08-18T15:23:02;22.90;99.90
57664;DHT22;43493;53.098;6.064;2022-08-18T15:25:47;23.00;99.90
57664;DHT22;43493;53.098;6.064;2022-08-18T15:30:43;23.10;99.90
57664;DHT22;43493;53.098;6.064;2022-08-18T15:33:10;23.10;99.90
57664;DHT22;43493;53.098;6.064;2022-08-18T15:35:36;23.10;99.90
57664;DHT22;43493;53.098;6.064;2022-08-18T15:38:04;23.10;99.90
57664;DHT22;43493;53.098;6.064;2022-08-18T15:40:30;23.10;99.90
57664;DHT22;43493;53.098;6.064;2022-08-18T15:42:58;23.00;99.90
57664;DHT22;43493;53.098;6.064;2022-08-18T15:45:31;23.00;99.90
57664;DHT22;43493;53.098;6.064;2022-08-18T15:48:00;23.00;99.90
57664;DHT22;43493;53.098;6.064;2022-08-18T15:50:27;23.00;99.90
57664;DHT22;43493;53.098;6.064;2022-08-18T15:52:58;23.00;99.90
57664;DHT22;43493;53.098;6.064;2022-08-18T15:55:27;23.00;99.90
57664;DHT22;43493;53.098;6.064;2022-08-18T15:57:54;23.00;99.90
57664;DHT22;43493;53.098;6.064;2022-08-18T16:00:22;23.00;99.90
57664;DHT22;43493;53.098;6.064;2022-08-18T16:02:51;23.00;99.90
57664;DHT22;43493;53.098;6.064;2022-08-18T16:05:19;23.00;99.90
57664;DHT22;43493;53.098;6.064;2022-08-18T16:07:48;22.90;99.90
57664;DHT22;43493;53.098;6.064;2022-08-18T16:10:17;23.00;99.90
57664;DHT22;43493;53.098;6.064;2022-08-18T16:12:44;23.00;99.90
57664;DHT22;43493;53.098;6.064;2022-08-18T16:15:11;23.00;99.90
57664;DHT22;43493;53.098;6.064;2022-08-18T16:17:36;23.00;99.90
57664;DHT22;43493;53.098;6.064;2022-08-18T16:20:04;23.00;99.90
57664;DHT22;43493;53.098;6.064;2022-08-18T16:22:30;23.00;99.90
57664;DHT22;43493;53.098;6.064;2022-08-18T16:24:57;23.00;99.90
57664;DHT22;43493;53.098;6.064;2022-08-18T16:27:23;23.00;99.90
57664;DHT22;43493;53.098;6.064;2022-08-18T16:29:56;23.00;99.90
57664;DHT22;43493;53.098;6.064;2022-08-18T16:34:48;22.80;99.90
57664;DHT22;43493;53.098;6.064;2022-08-18T16:37:14;22.80;99.90
57664;DHT22;43493;53.098;6.064;2022-08-18T17:36:58;21.90;99.90
57664;DHT22;43493;53.098;6.064;2022-08-18T17:39:35;21.90;99.90
57664;DHT22;43493;53.098;6.064;2022-08-18T17:42:02;21.80;99.90
57664;DHT22;43493;53.098;6.064;2022-08-18T17:44:46;21.80;99.90
57664;DHT22;43493;53.098;6.064;2022-08-18T17:47:19;21.70;99.90
57664;DHT22;43493;53.098;6.064;2022-08-18T17:49:47;21.70;99.90
57664;DHT22;43493;53.098;6.064;2022-08-18T17:52:38;21.70;99.90
57664;DHT22;43493;53.098;6.064;2022-08-18T17:55:57;21.70;99.90
57664;DHT22;43493;53.098;6.064;2022-08-18T17:58:28;21.70;99.90
57664;DHT22;43493;53.098;6.064;2022-08-18T18:00:59;21.70;99.90
57664;DHT22;43493;53.098;6.064;2022-08-18T18:03:27;21.60;99.90
57664;DHT22;43493;53.098;6.064;2022-08-18T18:06:07;21.60;99.90
57664;DHT22;43493;53.098;6.064;2022-08-18T18:08:53;21.50;99.90
57664;DHT22;43493;53.098;6.064;2022-08-18T18:11:41;21.50;99.90
57664;DHT22;43493;53.098;6.064;2022-08-18T18:14:34;21.40;99.90
57664;DHT22;43493;53.098;6.064;2022-08-18T18:17:28;21.30;99.90
57664;DHT22;43493;53.098;6.064;2022-08-18T18:22:38;21.00;99.90
57664;DHT22;43493;53.098;6.064;2022-08-18T18:25:06;20.90;99.90
57664;DHT22;43493;53.098;6.064;2022-08-18T18:27:42;20.90;99.90
57664;DHT22;43493;53.098;6.064;2022-08-18T18:35:18;20.70;99.90
57664;DHT22;43493;53.098;6.064;2022-08-18T18:37:49;20.60;99.90
57664;DHT22;43493;53.098;6.064;2022-08-18T18:42:54;20.50;99.90
57664;DHT22;43493;53.098;6.064;2022-08-18T18:45:24;20.50;99.90
57664;DHT22;43493;53.098;6.064;2022-08-18T18:48:05;20.40;99.90
57664;DHT22;43493;53.098;6.064;2022-08-18T18:56:17;20.20;99.90
57664;DHT22;43493;53.098;6.064;2022-08-18T18:59:21;20.10;99.90
57664;DHT22;43493;53.098;6.064;2022-08-18T19:04:45;20.00;99.90
57664;DHT22;43493;53.098;6.064;2022-08-18T19:07:47;20.00;99.90
57664;DHT22;43493;53.098;6.064;2022-08-18T19:10:30;19.90;99.90
57664;DHT22;43493;53.098;6.064;2022-08-18T19:13:05;19.90;99.90
57664;DHT22;43493;53.098;6.064;2022-08-18T19:15:33;19.80;99.90
57664;DHT22;43493;53.098;6.064;2022-08-18T19:18:04;19.80;99.90
57664;DHT22;43493;53.098;6.064;2022-08-18T19:20:35;19.70;99.90
57664;DHT22;43493;53.098;6.064;2022-08-18T19:23:41;19.70;99.90
57664;DHT22;43493;53.098;6.064;2022-08-18T19:26:00;19.70;99.90
57664;DHT22;43493;53.098;6.064;2022-08-18T19:28:48;19.60;99.90
57664;DHT22;43493;53.098;6.064;2022-08-18T19:31:36;19.60;99.90
57664;DHT22;43493;53.098;6.064;2022-08-18T19:34:16;19.50;99.90
57664;DHT22;43493;53.098;6.064;2022-08-18T19:36:56;19.50;99.90
57664;DHT22;43493;53.098;6.064;2022-08-18T19:39:31;19.50;99.90
57664;DHT22;43493;53.098;6.064;2022-08-18T19:42:20;19.50;99.90
57664;DHT22;43493;53.098;6.064;2022-08-18T19:45:05;19.50;99.90
57664;DHT22;43493;53.098;6.064;2022-08-18T19:55:39;19.30;99.90
57664;DHT22;43493;53.098;6.064;2022-08-18T19:58:22;19.30;99.90
57664;DHT22;43493;53.098;6.064;2022-08-18T20:15:20;19.20;99.90
57664;DHT22;43493;53.098;6.064;2022-08-18T20:20:20;19.10;99.90
57664;DHT22;43493;53.098;6.064;2022-08-18T20:22:49;19.10;99.90
57664;DHT22;43493;53.098;6.064;2022-08-18T20:30:32;19.10;99.90
57664;DHT22;43493;53.098;6.064;2022-08-18T20:33:15;19.00;99.90
57664;DHT22;43493;53.098;6.064;2022-08-18T20:36:19;19.00;99.90
57664;DHT22;43493;53.098;6.064;2022-08-18T20:38:49;19.00;99.90
57664;DHT22;43493;53.098;6.064;2022-08-18T20:44:30;19.00;99.90